< < Back
Terminal Aerodrome Forecast


Current Version              Previous Versions:   1  2  3  4  5  6  7  8  9  

Terminal Aerodrome Forecast

050
FTUS44 KBMX 251132
TAFANB
TAF
KANB 251132Z 2512/2612 00000KT P6SM SCT250
     FM251700 VRB04KT P6SM FEW070=

Latest METAR

064
SAUS70 KWBC 251500 RRL
MTRANB
METAR KANB 251453Z AUTO 05004KT 10SM CLR 30/18 A3009 RMK AO2 SLP179
T03000178 50001


USA.gov is the U.S. government's official web portal to all federal, state and local government web resources and services.